createdAt,value
2019-04-07T00:01:15.985Z,61.15
2019-04-07T00:03:48.643Z,60.40
2019-04-07T00:06:17.405Z,61.18
2019-04-07T00:08:46.589Z,60.52
2019-04-07T00:11:15.484Z,59.85
2019-04-07T00:13:44.758Z,60.60
2019-04-07T00:16:13.784Z,58.63
2019-04-07T00:18:42.396Z,63.42
2019-04-07T00:21:11.298Z,57.83
2019-04-07T00:23:39.690Z,62.70
2019-04-07T00:26:08.368Z,57.83
2019-04-07T00:28:37.073Z,61.25
2019-04-07T00:31:05.786Z,57.00
2019-04-07T00:33:34.476Z,56.02
2019-04-07T00:36:03.180Z,59.88
2019-04-07T00:38:31.869Z,58.45
2019-04-07T00:41:00.577Z,58.70
2019-04-07T00:43:29.271Z,58.80
2019-04-07T00:45:58.050Z,59.10
2019-04-07T00:48:26.747Z,60.40
2019-04-07T00:50:55.902Z,59.03
2019-04-07T00:53:25.448Z,58.25
2019-04-07T00:55:55.011Z,58.50
2019-04-07T00:58:23.945Z,56.95
2019-04-07T01:00:53.026Z,56.65
2019-04-07T01:03:22.698Z,57.35
2019-04-07T01:05:51.391Z,56.30
2019-04-07T01:08:20.574Z,58.08
2019-04-07T01:10:50.242Z,57.88
2019-04-07T01:13:19.919Z,54.83
2019-04-07T01:15:48.611Z,56.08
2019-04-07T01:18:17.492Z,54.73
2019-04-07T01:20:47.075Z,59.67
2019-04-07T01:23:16.013Z,56.37
2019-04-07T01:25:44.621Z,57.17
2019-04-07T01:28:13.052Z,58.80
2019-04-07T01:30:41.689Z,58.87
2019-04-07T01:33:10.301Z,59.73
2019-04-07T01:35:46.756Z,59.53
2019-04-07T01:38:09.545Z,62.88
2019-04-07T01:40:39.012Z,61.90
2019-04-07T01:43:25.995Z,60.98
2019-04-07T01:46:06.397Z,60.80
2019-04-07T01:48:53.280Z,57.90
2019-04-07T01:51:40.083Z,57.93
2019-04-07T01:54:27.146Z,60.00
2019-04-07T01:56:58.108Z,56.80
2019-04-07T01:59:37.839Z,57.17
2019-04-07T02:02:14.703Z,56.42
2019-04-07T02:04:45.300Z,59.18
2019-04-07T02:07:30.909Z,58.08
2019-04-07T02:10:13.681Z,56.45
2019-04-07T02:12:50.717Z,57.13
2019-04-07T02:15:33.982Z,59.85
2019-04-07T02:18:04.603Z,60.03
2019-04-07T02:20:59.588Z,57.27
2019-04-07T02:23:33.885Z,61.70
2019-04-07T02:26:04.534Z,60.10
2019-04-07T02:28:51.393Z,59.20
2019-04-07T02:31:31.885Z,59.85
2019-04-07T02:34:03.191Z,59.03
2019-04-07T02:36:37.583Z,58.58
2019-04-07T02:39:09.166Z,59.45
2019-04-07T02:41:46.535Z,59.55
2019-04-07T02:44:17.975Z,60.25
2019-04-07T02:46:51.729Z,60.90
2019-04-07T02:49:22.287Z,61.60
2019-04-07T02:52:11.150Z,64.15
2019-04-07T02:54:59.330Z,64.25
2019-04-07T02:57:29.621Z,62.65
2019-04-07T03:00:01.115Z,66.30
2019-04-07T03:02:48.267Z,65.52
2019-04-07T03:05:28.155Z,63.13
2019-04-07T03:08:15.586Z,67.58
2019-04-07T03:10:49.251Z,63.42
2019-04-07T03:13:19.867Z,68.25
2019-04-07T03:16:00.758Z,67.25
2019-04-07T03:18:31.747Z,62.62
2019-04-07T03:21:05.128Z,65.32
2019-04-07T03:23:38.704Z,66.28
2019-04-07T03:26:18.503Z,64.15
2019-04-07T03:29:05.614Z,64.27
2019-04-07T03:31:53.512Z,63.65
2019-04-07T03:34:27.787Z,65.15
2019-04-07T03:37:18.322Z,63.35
2019-04-07T03:39:34.323Z,66.72
2019-04-07T03:42:14.474Z,63.87
2019-04-07T03:44:47.509Z,62.08
2019-04-07T03:47:34.296Z,68.33
2019-04-07T03:50:12.454Z,65.42
2019-04-07T03:52:49.013Z,75.57
2019-04-07T03:55:21.345Z,66.35
2019-04-07T03:57:57.805Z,65.35
2019-04-07T04:00:50.251Z,66.75
2019-04-07T04:03:26.344Z,65.52
2019-04-07T04:06:12.863Z,62.40
2019-04-07T04:08:58.781Z,73.57
2019-04-07T04:11:29.326Z,65.22
2019-04-07T04:14:02.932Z,66.70
2019-04-07T04:16:32.814Z,66.45
2019-04-07T04:19:02.466Z,66.67
2019-04-07T04:21:31.477Z,70.40
2019-04-07T04:24:00.586Z,67.60
2019-04-07T04:28:58.259Z,61.98
2019-04-07T04:31:27.418Z,67.00
2019-04-07T04:33:56.070Z,68.22
2019-04-07T04:36:25.305Z,69.00
2019-04-07T04:38:54.407Z,73.35
2019-04-07T04:41:23.343Z,68.55
2019-04-07T04:43:51.696Z,67.53
2019-04-07T04:46:20.461Z,64.03
2019-04-07T04:48:49.503Z,68.45
2019-04-07T04:51:19.641Z,65.20
2019-04-07T04:53:49.412Z,67.95
2019-04-07T04:56:19.955Z,66.95
2019-04-07T04:58:50.390Z,66.53
2019-04-07T05:01:19.539Z,64.40
2019-04-07T05:03:48.219Z,71.50
2019-04-07T05:06:17.891Z,69.75
2019-04-07T05:08:46.981Z,69.42
2019-04-07T05:11:15.878Z,73.70
2019-04-07T05:13:44.249Z,69.10
2019-04-07T05:16:13.003Z,66.22
2019-04-07T05:18:41.637Z,69.35
2019-04-07T05:21:10.628Z,70.65
2019-04-07T05:26:07.764Z,62.65
2019-04-07T05:28:38.002Z,72.05
2019-04-07T05:31:07.357Z,68.00
2019-04-07T05:36:04.848Z,68.42
2019-04-07T05:38:34.538Z,70.90
2019-04-07T05:41:03.489Z,67.42
2019-04-07T05:43:32.716Z,67.90
2019-04-07T05:46:01.741Z,65.20
2019-04-07T05:48:30.410Z,70.75
2019-04-07T05:51:00.865Z,65.60
2019-04-07T05:53:29.894Z,66.55
2019-04-07T05:55:58.251Z,65.67
2019-04-07T05:58:26.899Z,66.60
2019-04-07T06:00:55.569Z,65.00
2019-04-07T06:03:24.193Z,64.05
2019-04-07T06:05:52.872Z,69.00
2019-04-07T06:08:29.554Z,62.70
2019-04-07T06:10:56.875Z,64.80
2019-04-07T06:13:23.629Z,63.33
2019-04-07T06:15:53.226Z,61.55
2019-04-07T06:18:22.815Z,63.40
2019-04-07T06:20:52.021Z,59.05
2019-04-07T06:23:24.251Z,62.30
2019-04-07T06:25:51.103Z,59.13
2019-04-07T06:28:19.753Z,58.55
2019-04-07T06:30:48.424Z,59.30
2019-04-07T06:33:17.477Z,57.95
2019-04-07T06:35:47.429Z,59.50
2019-04-07T06:38:16.715Z,58.28
2019-04-07T06:40:45.931Z,57.85
2019-04-07T06:43:14.931Z,55.35
2019-04-07T06:45:52.758Z,56.98
2019-04-07T06:48:22.215Z,57.23
2019-04-07T06:50:58.293Z,55.75
2019-04-07T06:53:46.801Z,54.45
2019-04-07T06:56:16.412Z,53.17
2019-04-07T06:58:47.193Z,54.55
2019-04-07T07:01:34.866Z,54.35
2019-04-07T07:04:12.908Z,52.35
2019-04-07T07:06:55.714Z,50.75
2019-04-07T07:09:29.238Z,52.33
2019-04-07T07:12:19.930Z,86.95
2019-04-07T07:15:00.970Z,55.58
2019-04-07T07:17:47.859Z,48.48
2019-04-07T07:20:23.128Z,49.80
2019-04-07T07:22:54.958Z,47.23
2019-04-07T07:25:24.149Z,46.15
2019-04-07T07:27:52.526Z,46.13
2019-04-07T07:30:21.473Z,46.00
2019-04-07T07:35:19.008Z,59.45
2019-04-07T07:37:48.383Z,58.55
2019-04-07T07:40:18.303Z,43.05
2019-04-07T07:42:49.799Z,42.17
2019-04-07T07:45:18.694Z,44.10
2019-04-07T07:47:51.369Z,42.98
2019-04-07T07:50:19.011Z,37.93
2019-04-07T07:52:51.279Z,36.48
2019-04-07T07:55:18.760Z,35.28
2019-04-07T07:57:48.162Z,35.20
2019-04-07T08:00:17.000Z,33.97
2019-04-07T08:02:49.096Z,32.45
2019-04-07T08:05:16.072Z,35.08
2019-04-07T08:07:47.241Z,31.80
2019-04-07T08:10:15.872Z,31.35
2019-04-07T08:12:45.725Z,31.87
2019-04-07T08:15:15.476Z,29.80
2019-04-07T08:17:44.214Z,28.12
2019-04-07T08:20:14.248Z,29.02
2019-04-07T08:22:44.027Z,29.25
2019-04-07T08:25:14.192Z,36.77
2019-04-07T08:27:43.072Z,30.80
2019-04-07T08:30:13.730Z,27.53
2019-04-07T08:32:42.200Z,27.73
2019-04-07T08:35:10.555Z,27.98
2019-04-07T08:37:39.409Z,26.95
2019-04-07T08:40:09.087Z,27.37
2019-04-07T08:42:38.157Z,27.67
2019-04-07T08:45:07.110Z,27.63
2019-04-07T08:52:33.192Z,28.90
2019-04-07T08:55:01.989Z,43.97
2019-04-07T08:57:32.317Z,35.07
2019-04-07T09:00:01.099Z,35.67
2019-04-07T09:02:31.066Z,29.63
2019-04-07T09:05:00.277Z,27.23
2019-04-07T09:07:32.915Z,25.43
2019-04-07T09:09:59.867Z,23.73
2019-04-07T09:12:30.762Z,24.93
2019-04-07T09:14:59.546Z,23.90
2019-04-07T09:17:41.004Z,22.80
2019-04-07T09:20:09.449Z,21.30
2019-04-07T09:22:42.081Z,21.90
2019-04-07T09:25:19.270Z,22.30
2019-04-07T09:27:58.482Z,22.57
2019-04-07T09:30:29.669Z,22.10
2019-04-07T09:33:06.017Z,21.73
2019-04-07T09:35:52.066Z,23.47
2019-04-07T09:38:24.886Z,20.23
2019-04-07T09:40:54.959Z,19.93
2019-04-07T09:43:26.167Z,20.53
2019-04-07T09:46:11.931Z,19.83
2019-04-07T09:48:50.950Z,18.43
2019-04-07T09:51:33.093Z,17.87
2019-04-07T09:54:06.213Z,17.70
2019-04-07T09:56:42.869Z,17.50
2019-04-07T09:59:22.843Z,16.47
2019-04-07T10:02:03.294Z,17.00
2019-04-07T10:04:37.919Z,19.13
2019-04-07T10:07:09.608Z,18.57
2019-04-07T10:09:50.128Z,18.87
2019-04-07T10:12:30.102Z,17.07
2019-04-07T10:15:03.458Z,17.77
2019-04-07T10:17:39.643Z,19.37
2019-04-07T10:20:09.995Z,15.43
2019-04-07T10:22:42.944Z,17.10
2019-04-07T10:25:13.259Z,15.40
2019-04-07T10:28:01.473Z,15.23
2019-04-07T10:30:34.935Z,15.88
2019-04-07T10:33:21.490Z,13.63
2019-04-07T10:36:03.636Z,13.40
2019-04-07T10:38:43.767Z,12.47
2019-04-07T10:41:30.500Z,12.57
2019-04-07T10:44:17.858Z,11.90
2019-04-07T10:46:48.226Z,13.57
2019-04-07T10:49:21.368Z,13.90
2019-04-07T10:51:52.259Z,13.70
2019-04-07T10:54:25.452Z,12.50
2019-04-07T10:57:02.008Z,12.93
2019-04-07T10:59:49.207Z,13.03
2019-04-07T11:02:35.040Z,12.27
2019-04-07T11:05:07.033Z,12.07
2019-04-07T11:07:53.730Z,12.80
2019-04-07T11:10:34.449Z,12.03
2019-04-07T11:13:13.426Z,12.33
2019-04-07T11:15:43.192Z,12.80
2019-04-07T11:18:25.393Z,12.27
2019-04-07T11:21:07.544Z,12.37
2019-04-07T11:23:55.726Z,11.63
2019-04-07T11:26:28.798Z,12.58
2019-04-07T11:28:59.396Z,12.13
2019-04-07T11:31:31.045Z,11.93
2019-04-07T11:34:17.722Z,12.60
2019-04-07T11:36:51.794Z,12.00
2019-04-07T11:39:31.244Z,13.07
2019-04-07T11:42:17.478Z,12.70
2019-04-07T11:44:48.570Z,12.77
2019-04-07T11:47:19.709Z,12.43
2019-04-07T11:50:06.355Z,11.93
2019-04-07T11:52:37.047Z,13.30
2019-04-07T11:55:13.917Z,12.47
2019-04-07T11:57:45.250Z,12.97
2019-04-07T12:00:22.160Z,12.60
2019-04-07T12:02:58.507Z,12.30
2019-04-07T12:05:42.404Z,11.83
2019-04-07T12:08:16.144Z,12.00
2019-04-07T12:10:58.427Z,12.10
2019-04-07T12:13:24.456Z,11.93
2019-04-07T12:15:56.077Z,12.83
2019-04-07T12:18:32.891Z,12.10
2019-04-07T12:21:07.607Z,12.83
2019-04-07T12:23:44.389Z,11.50
2019-04-07T12:26:18.158Z,11.97
2019-04-07T12:28:50.361Z,12.80
2019-04-07T12:31:37.263Z,12.20
2019-04-07T12:34:23.708Z,12.20
2019-04-07T12:36:54.161Z,11.63
2019-04-07T12:39:34.954Z,12.57
2019-04-07T12:42:14.662Z,12.73
2019-04-07T12:44:57.093Z,12.73
2019-04-07T12:47:30.166Z,12.60
2019-04-07T12:50:00.514Z,12.60
2019-04-07T12:52:33.571Z,12.60
2019-04-07T12:55:17.920Z,12.30
2019-04-07T12:57:56.920Z,12.87
2019-04-07T13:00:57.187Z,13.87
2019-04-07T13:03:18.147Z,13.87
2019-04-07T13:05:54.479Z,12.70
2019-04-07T13:08:25.808Z,12.63
2019-04-07T13:11:08.810Z,12.23
2019-04-07T13:13:37.446Z,12.10
2019-04-07T13:16:21.010Z,13.00
2019-04-07T13:18:57.359Z,12.13
2019-04-07T13:21:27.906Z,11.97
2019-04-07T13:24:08.542Z,12.20
2019-04-07T13:26:52.095Z,11.80
2019-04-07T13:29:28.113Z,12.03
2019-04-07T13:32:01.388Z,11.33
2019-04-07T13:34:49.826Z,11.30
2019-04-07T13:37:20.254Z,10.97
2019-04-07T13:39:50.617Z,11.77
2019-04-07T13:42:25.442Z,12.47
2019-04-07T13:45:14.066Z,11.63
2019-04-07T13:47:55.712Z,11.45
2019-04-07T13:50:42.103Z,11.77
2019-04-07T13:53:15.444Z,11.47
2019-04-07T13:55:48.692Z,11.57
2019-04-07T13:58:36.765Z,11.50
2019-04-07T14:01:10.610Z,10.88
2019-04-07T14:03:59.013Z,11.30
2019-04-07T14:06:36.200Z,10.80
2019-04-07T14:09:09.354Z,11.13
2019-04-07T14:11:53.146Z,11.60
2019-04-07T14:14:17.918Z,10.87
2019-04-07T14:16:51.725Z,10.70
2019-04-07T14:19:38.650Z,10.63
2019-04-07T14:22:14.539Z,10.57
2019-04-07T14:24:53.822Z,10.60
2019-04-07T14:27:24.139Z,11.67
2019-04-07T14:30:11.346Z,11.17
2019-04-07T14:32:42.735Z,10.70
2019-04-07T14:35:29.440Z,10.30
2019-04-07T14:38:15.833Z,11.00
2019-04-07T14:40:48.935Z,10.80
2019-04-07T14:43:22.219Z,11.07
2019-04-07T14:45:55.310Z,10.53
2019-04-07T14:48:34.795Z,10.50
2019-04-07T14:51:20.059Z,10.70
2019-04-07T14:54:06.388Z,10.40
2019-04-07T14:56:55.381Z,11.13
2019-04-07T14:59:35.141Z,10.20
2019-04-07T15:02:04.221Z,10.83
2019-04-07T15:04:37.905Z,10.33
2019-04-07T15:07:10.080Z,11.43
2019-04-07T15:09:52.475Z,12.00
2019-04-07T15:12:25.196Z,20.63
2019-04-07T15:14:53.186Z,10.60
2019-04-07T15:17:22.048Z,11.27
2019-04-07T15:19:51.337Z,10.43
2019-04-07T15:22:22.627Z,12.33
2019-04-07T15:24:50.466Z,11.87
2019-04-07T15:27:21.956Z,11.20
2019-04-07T15:29:50.281Z,9.10
2019-04-07T15:32:21.178Z,9.60
2019-04-07T15:34:49.357Z,9.67
2019-04-07T15:37:21.536Z,11.30
2019-04-07T15:39:48.414Z,11.17
2019-04-07T15:42:33.105Z,11.63
2019-04-07T15:44:48.172Z,12.07
2019-04-07T15:47:17.984Z,12.03
2019-04-07T15:49:46.724Z,11.20
2019-04-07T15:52:16.297Z,11.30
2019-04-07T15:54:45.024Z,12.10
2019-04-07T15:57:13.729Z,11.13
2019-04-07T15:59:43.258Z,10.93
2019-04-07T16:02:12.446Z,11.10
2019-04-07T16:04:41.951Z,10.80
2019-04-07T16:07:11.982Z,10.97
2019-04-07T16:09:50.821Z,11.50
2019-04-07T16:12:11.186Z,11.20
2019-04-07T16:14:43.970Z,11.53
2019-04-07T16:17:12.014Z,13.80
2019-04-07T16:19:44.011Z,13.00
2019-04-07T16:22:12.633Z,14.73
2019-04-07T16:24:41.674Z,15.13
2019-04-07T16:27:10.953Z,17.07
2019-04-07T16:29:39.891Z,15.37
2019-04-07T16:32:09.279Z,15.23
2019-04-07T16:34:40.795Z,14.60
2019-04-07T16:37:08.431Z,15.13
2019-04-07T16:39:37.577Z,14.37
2019-04-07T16:42:06.475Z,16.87
2019-04-07T16:44:37.593Z,18.00
2019-04-07T16:47:17.244Z,17.63
2019-04-07T16:49:35.913Z,14.23
2019-04-07T16:52:05.510Z,15.33
2019-04-07T16:54:34.684Z,14.27
2019-04-07T16:57:03.394Z,14.80
2019-04-07T17:02:00.202Z,14.35
2019-04-07T17:07:03.306Z,13.72
2019-04-07T17:09:28.451Z,14.67
2019-04-07T17:11:57.844Z,14.33
2019-04-07T17:14:26.922Z,15.20
2019-04-07T17:16:55.839Z,15.57
2019-04-07T17:19:26.585Z,14.87
2019-04-07T17:21:55.498Z,14.87
2019-04-07T17:24:27.795Z,13.90
2019-04-07T17:26:55.048Z,14.33
2019-04-07T17:29:24.722Z,13.87
2019-04-07T17:31:54.389Z,14.67
2019-04-07T17:34:24.024Z,13.87
2019-04-07T17:36:55.947Z,27.40
2019-04-07T17:39:24.813Z,17.27
2019-04-07T17:41:55.216Z,14.60
2019-04-07T17:44:29.663Z,15.40
2019-04-07T17:47:00.163Z,15.77
2019-04-07T17:49:47.211Z,14.90
2019-04-07T17:52:33.668Z,14.57
2019-04-07T17:55:22.771Z,15.37
2019-04-07T17:57:52.092Z,15.60
2019-04-07T18:00:25.154Z,14.93
2019-04-07T18:03:04.790Z,15.33
2019-04-07T18:05:33.044Z,15.70
2019-04-07T18:08:03.391Z,16.03
2019-04-07T18:10:46.555Z,15.90
2019-04-07T18:13:39.858Z,15.40
2019-04-07T18:16:17.050Z,15.73
2019-04-07T18:18:56.266Z,16.27
2019-04-07T18:21:44.840Z,15.63
2019-04-07T18:24:13.764Z,16.05
2019-04-07T18:26:48.072Z,16.10
2019-04-07T18:29:34.302Z,15.57
2019-04-07T18:32:14.515Z,17.57
2019-04-07T18:35:02.421Z,16.90
2019-04-07T18:37:48.406Z,16.95
2019-04-07T18:40:28.462Z,17.00
2019-04-07T18:43:08.157Z,16.23
2019-04-07T18:45:44.773Z,32.77
2019-04-07T18:48:28.791Z,19.17
2019-04-07T18:50:59.244Z,16.63
2019-04-07T18:53:29.583Z,18.60
2019-04-07T18:56:09.215Z,17.63
2019-04-07T18:58:55.867Z,18.62
2019-04-07T19:01:28.608Z,18.00
2019-04-07T19:04:02.465Z,17.87
2019-04-07T19:06:33.327Z,19.03
2019-04-07T19:09:18.924Z,19.07
2019-04-07T19:12:13.101Z,18.70
2019-04-07T19:14:52.264Z,19.55
2019-04-07T19:17:21.672Z,19.07
2019-04-07T19:20:08.966Z,18.27
2019-04-07T19:22:49.042Z,18.23
2019-04-07T19:25:17.315Z,19.07
2019-04-07T19:27:50.442Z,18.30
2019-04-07T19:30:28.160Z,18.95
2019-04-07T19:33:02.388Z,17.57
2019-04-07T19:35:48.652Z,17.87
2019-04-07T19:38:37.500Z,18.20
2019-04-07T19:41:07.320Z,19.15
2019-04-07T19:43:39.895Z,21.00
2019-04-07T19:46:28.200Z,18.70
2019-04-07T19:49:11.300Z,17.12
2019-04-07T19:51:54.634Z,18.55
2019-04-07T19:54:34.303Z,17.70
2019-04-07T19:57:07.632Z,18.25
2019-04-07T19:59:41.645Z,18.40
2019-04-07T20:02:10.178Z,18.77
2019-04-07T20:04:48.781Z,17.47
2019-04-07T20:07:18.548Z,16.80
2019-04-07T20:09:49.211Z,16.65
2019-04-07T20:12:29.974Z,17.15
2019-04-07T20:15:09.124Z,17.33
2019-04-07T20:17:54.970Z,17.35
2019-04-07T20:20:28.059Z,17.10
2019-04-07T20:23:00.954Z,16.70
2019-04-07T20:25:34.005Z,16.23
2019-04-07T20:28:04.320Z,16.73
2019-04-07T20:30:37.832Z,17.40
2019-04-07T20:33:20.633Z,17.10
2019-04-07T20:36:06.654Z,17.57
2019-04-07T20:38:37.915Z,17.50
2019-04-07T20:41:24.805Z,17.15
2019-04-07T20:44:07.644Z,17.15
2019-04-07T20:46:38.302Z,17.80
2019-04-07T20:49:25.028Z,17.27
2019-04-07T20:52:04.749Z,17.73
2019-04-07T20:54:35.656Z,16.77
2019-04-07T20:57:16.335Z,17.55
2019-04-07T20:59:50.029Z,17.27
2019-04-07T21:02:29.350Z,17.35
2019-04-07T21:05:18.669Z,18.37
2019-04-07T21:07:51.856Z,17.12
2019-04-07T21:10:23.159Z,17.50
2019-04-07T21:12:54.744Z,17.87
2019-04-07T21:15:30.523Z,18.55
2019-04-07T21:18:09.452Z,16.87
2019-04-07T21:20:56.797Z,18.90
2019-04-07T21:23:29.859Z,18.77
2019-04-07T21:26:03.646Z,18.57
2019-04-07T21:28:38.065Z,18.75
2019-04-07T21:31:16.057Z,19.15
2019-04-07T21:33:47.688Z,19.67
2019-04-07T21:36:27.964Z,17.85
2019-04-07T21:39:07.809Z,18.85
2019-04-07T21:41:54.111Z,19.02
2019-04-07T21:44:28.439Z,20.20
2019-04-07T21:47:14.988Z,19.25
2019-04-07T21:49:45.976Z,18.82
2019-04-07T21:52:21.055Z,19.55
2019-04-07T21:55:09.874Z,20.55
2019-04-07T21:57:50.749Z,20.20
2019-04-07T22:00:17.038Z,20.02
2019-04-07T22:02:57.060Z,21.37
2019-04-07T22:05:39.525Z,19.52
2019-04-07T22:08:14.406Z,22.20
2019-04-07T22:10:41.538Z,20.62
2019-04-07T22:13:10.514Z,21.82
2019-04-07T22:15:46.580Z,20.62
2019-04-07T22:18:09.983Z,21.15
2019-04-07T22:20:39.090Z,22.70
2019-04-07T22:23:09.616Z,22.32
2019-04-07T22:25:42.102Z,22.45
2019-04-07T22:28:11.700Z,21.77
2019-04-07T22:30:44.413Z,23.70
2019-04-07T22:33:12.548Z,23.80
2019-04-07T22:35:42.749Z,23.15
2019-04-07T22:38:11.983Z,22.58
2019-04-07T22:40:40.371Z,23.60
2019-04-07T22:43:09.285Z,23.52
2019-04-07T22:48:08.150Z,24.57
2019-04-07T22:50:37.617Z,23.98
2019-04-07T22:53:07.321Z,24.57
2019-04-07T23:00:32.491Z,24.27
2019-04-07T23:03:01.611Z,25.00
2019-04-07T23:05:30.286Z,25.57
2019-04-07T23:07:59.902Z,27.45
2019-04-07T23:10:28.972Z,26.42
2019-04-07T23:12:57.656Z,26.68
2019-04-07T23:15:37.319Z,27.60
2019-04-07T23:17:57.650Z,28.02
2019-04-07T23:20:26.909Z,28.67
2019-04-07T23:25:23.296Z,28.85
2019-04-07T23:30:21.558Z,29.17
2019-04-07T23:32:50.447Z,28.23
2019-04-07T23:35:20.053Z,29.25
2019-04-07T23:37:49.056Z,31.45
2019-04-07T23:40:18.332Z,29.15
2019-04-07T23:42:47.335Z,28.80
2019-04-07T23:45:16.566Z,29.65
2019-04-07T23:47:45.616Z,29.10
2019-04-07T23:50:14.607Z,29.55
2019-04-07T23:52:43.609Z,31.87
2019-04-07T23:55:12.926Z,30.85
2019-04-07T23:57:42.338Z,30.70
